createdAt,value
2018-09-25T00:00:38.753Z,12.20
2018-09-25T00:03:12.465Z,12.50
2018-09-25T00:08:20.190Z,13.10
2018-09-25T00:10:53.906Z,13.20
2018-09-25T00:13:27.590Z,13.20
2018-09-25T00:16:01.258Z,13.00
2018-09-25T00:18:34.974Z,12.90
2018-09-25T00:21:08.670Z,12.00
2018-09-25T00:23:42.363Z,11.90
2018-09-25T00:26:16.052Z,12.20
2018-09-25T00:28:49.688Z,12.50
2018-09-25T00:31:23.294Z,12.50
2018-09-25T00:33:57.425Z,12.90
2018-09-25T00:36:31.121Z,13.00
2018-09-25T00:39:04.929Z,12.50
2018-09-25T00:44:12.123Z,12.50
2018-09-25T00:46:45.797Z,12.30
2018-09-25T00:51:52.882Z,12.10
2018-09-25T00:54:26.706Z,12.40
2018-09-25T00:57:00.457Z,12.40
2018-09-25T00:59:34.083Z,11.90
2018-09-25T01:02:07.798Z,12.00
2018-09-25T01:04:41.529Z,11.90
2018-09-25T01:07:15.042Z,11.90
2018-09-25T01:09:48.651Z,12.20
2018-09-25T01:12:22.299Z,12.60
2018-09-25T01:15:02.818Z,12.60
2018-09-25T01:17:36.356Z,9.00
2018-09-25T01:22:43.685Z,12.50
2018-09-25T01:25:17.265Z,12.90
2018-09-25T01:27:50.921Z,12.90
2018-09-25T01:30:24.726Z,12.70
2018-09-25T01:32:58.177Z,12.40
2018-09-25T01:35:31.919Z,12.60
2018-09-25T01:38:05.706Z,12.60
2018-09-25T01:40:39.761Z,12.50
2018-09-25T01:43:13.573Z,12.60
2018-09-25T01:45:47.250Z,12.60
2018-09-25T01:48:20.937Z,12.70
2018-09-25T01:50:54.557Z,12.60
2018-09-25T01:53:28.090Z,12.40
2018-09-25T01:56:01.845Z,12.20
2018-09-25T01:58:35.626Z,11.90
2018-09-25T02:01:09.533Z,11.80
2018-09-25T02:03:43.112Z,11.90
2018-09-25T02:06:16.870Z,11.90
2018-09-25T02:08:50.297Z,11.90
2018-09-25T02:11:23.853Z,12.20
2018-09-25T02:13:57.434Z,12.40
2018-09-25T02:19:17.341Z,12.40
2018-09-25T02:21:51.031Z,12.50
2018-09-25T02:24:24.575Z,12.40
2018-09-25T02:26:58.690Z,12.40
2018-09-25T02:29:32.344Z,12.60
2018-09-25T02:32:05.950Z,12.70
2018-09-25T02:34:39.361Z,12.80
2018-09-25T02:37:12.980Z,12.70
2018-09-25T02:39:46.554Z,12.30
2018-09-25T02:42:20.254Z,12.30
2018-09-25T02:44:53.956Z,12.20
2018-09-25T02:47:27.554Z,12.20
2018-09-25T02:50:01.249Z,10.40
2018-09-25T02:52:34.985Z,12.20
2018-09-25T02:55:08.702Z,12.20
2018-09-25T02:57:42.394Z,12.20
2018-09-25T03:00:16.190Z,12.10
2018-09-25T03:02:50.139Z,11.90
2018-09-25T03:05:23.886Z,11.80
2018-09-25T03:07:57.506Z,11.90
2018-09-25T03:10:31.162Z,11.90
2018-09-25T03:13:04.655Z,12.00
2018-09-25T03:15:38.393Z,11.80
2018-09-25T03:18:12.055Z,11.90
2018-09-25T03:20:45.702Z,11.90
2018-09-25T03:25:53.188Z,11.80
2018-09-25T03:28:26.829Z,11.60
2018-09-25T03:31:00.515Z,11.10
2018-09-25T03:33:34.012Z,11.20
2018-09-25T03:36:07.705Z,11.10
2018-09-25T03:38:41.761Z,11.10
2018-09-25T03:41:15.521Z,11.10
2018-09-25T03:43:49.257Z,11.30
2018-09-25T03:46:22.926Z,11.60
2018-09-25T03:48:56.662Z,11.60
2018-09-25T03:51:30.281Z,11.60
2018-09-25T03:54:03.997Z,11.60
2018-09-25T03:56:37.733Z,11.50
2018-09-25T03:59:11.555Z,11.50
2018-09-25T04:01:45.058Z,11.50
2018-09-25T04:04:18.979Z,11.50
2018-09-25T04:06:52.750Z,11.20
2018-09-25T04:09:26.503Z,11.50
2018-09-25T04:12:00.057Z,11.50
2018-09-25T04:14:34.222Z,11.40
2018-09-25T04:17:07.837Z,11.50
2018-09-25T04:19:41.633Z,11.50
2018-09-25T04:22:15.050Z,11.50
2018-09-25T04:24:48.808Z,11.60
2018-09-25T04:27:22.482Z,11.60
2018-09-25T04:29:56.111Z,11.50
2018-09-25T04:32:29.661Z,11.30
2018-09-25T04:35:03.430Z,11.10
2018-09-25T04:37:37.201Z,11.10
2018-09-25T04:40:10.899Z,11.20
2018-09-25T04:42:44.653Z,11.40
2018-09-25T04:47:51.954Z,11.50
2018-09-25T04:50:25.562Z,11.60
2018-09-25T04:52:59.205Z,11.20
2018-09-25T04:55:32.856Z,11.10
2018-09-25T04:58:06.520Z,11.20
2018-09-25T05:00:41.001Z,11.10
2018-09-25T05:05:48.251Z,11.10
2018-09-25T05:08:21.849Z,10.90
2018-09-25T05:10:55.588Z,11.10
2018-09-25T05:13:29.018Z,11.10
2018-09-25T05:18:36.141Z,11.20
2018-09-25T05:21:09.953Z,11.20
2018-09-25T05:26:17.131Z,11.10
2018-09-25T05:28:50.627Z,11.10
2018-09-25T05:31:24.701Z,10.80
2018-09-25T05:33:58.373Z,11.00
2018-09-25T05:36:32.206Z,11.20
2018-09-25T05:41:39.477Z,11.20
2018-09-25T05:44:13.059Z,11.00
2018-09-25T05:46:46.693Z,11.00
2018-09-25T05:49:20.384Z,11.10
2018-09-25T05:51:53.961Z,11.20
2018-09-25T05:57:01.443Z,11.30
2018-09-25T05:59:35.205Z,11.30
2018-09-25T06:02:08.888Z,11.60
2018-09-25T06:04:42.627Z,11.60
2018-09-25T06:07:16.342Z,11.60
2018-09-25T06:09:50.216Z,11.60
2018-09-25T06:12:23.830Z,11.70
2018-09-25T06:17:31.010Z,12.00
2018-09-25T06:20:04.770Z,12.10
2018-09-25T06:22:38.570Z,12.30
2018-09-25T06:25:12.222Z,12.30
2018-09-25T06:27:46.727Z,12.30
2018-09-25T06:30:20.483Z,12.40
2018-09-25T06:35:27.854Z,12.40
2018-09-25T06:38:01.574Z,12.70
2018-09-25T06:40:35.245Z,12.70
2018-09-25T06:43:09.206Z,12.80
2018-09-25T06:45:42.833Z,12.80
2018-09-25T06:48:16.610Z,13.10
2018-09-25T06:50:51.708Z,13.20
2018-09-25T06:53:25.833Z,13.30
2018-09-25T06:55:59.631Z,13.30
2018-09-25T06:58:33.065Z,13.50
2018-09-25T07:01:06.518Z,13.70
2018-09-25T07:03:40.294Z,13.90
2018-09-25T07:06:14.084Z,14.00
2018-09-25T07:08:47.789Z,14.10
2018-09-25T07:11:21.543Z,14.10
2018-09-25T07:13:55.234Z,14.30
2018-09-25T07:16:28.865Z,14.30
2018-09-25T07:19:02.603Z,14.30
2018-09-25T07:21:36.354Z,14.20
2018-09-25T07:26:43.353Z,14.20
2018-09-25T07:29:17.073Z,14.20
2018-09-25T07:34:24.250Z,14.70
2018-09-25T07:36:57.802Z,14.60
2018-09-25T07:39:31.446Z,14.90
2018-09-25T07:42:05.169Z,15.00
2018-09-25T07:52:19.662Z,15.10
2018-09-25T07:54:53.375Z,15.20
2018-09-25T08:00:00.507Z,15.20
2018-09-25T08:02:34.254Z,15.10
2018-09-25T08:05:08.382Z,15.60
2018-09-25T08:07:41.969Z,15.90
2018-09-25T08:10:15.823Z,16.00
2018-09-25T08:12:50.110Z,16.00
2018-09-25T08:15:23.857Z,16.30
2018-09-25T08:17:57.434Z,16.40
2018-09-25T08:20:31.155Z,16.60
2018-09-25T08:25:38.512Z,17.00
2018-09-25T08:28:12.238Z,17.10
2018-09-25T08:30:45.990Z,17.00
2018-09-25T08:35:53.070Z,16.80
2018-09-25T08:38:26.688Z,16.90
2018-09-25T08:41:00.454Z,16.70
2018-09-25T08:43:34.164Z,17.20
2018-09-25T08:46:07.837Z,17.80
2018-09-25T08:48:41.639Z,17.80
2018-09-25T08:51:15.346Z,18.80
2018-09-25T08:53:49.049Z,18.50
2018-09-25T08:56:22.766Z,18.80
2018-09-25T08:58:56.450Z,19.20
2018-09-25T09:01:30.111Z,19.10
2018-09-25T09:04:03.730Z,19.90
2018-09-25T09:06:37.503Z,21.10
2018-09-25T09:09:14.074Z,20.90
2018-09-25T09:11:48.468Z,21.10
2018-09-25T09:14:22.153Z,21.80
2018-09-25T09:16:55.832Z,21.60
2018-09-25T09:19:29.603Z,20.70
2018-09-25T09:22:03.229Z,21.70
2018-09-25T09:27:10.469Z,21.00
2018-09-25T09:29:44.035Z,21.60
2018-09-25T09:32:17.787Z,21.60
2018-09-25T09:34:51.566Z,21.80
2018-09-25T09:37:25.334Z,21.90
2018-09-25T09:39:59.001Z,21.50
2018-09-25T09:42:32.705Z,21.70
2018-09-25T09:45:06.449Z,21.50
2018-09-25T09:47:40.105Z,21.00
2018-09-25T09:50:13.847Z,21.30
2018-09-25T09:52:47.552Z,21.00
2018-09-25T09:55:21.202Z,22.60
2018-09-25T09:57:55.040Z,23.20
2018-09-25T10:00:28.844Z,22.50
2018-09-25T10:03:02.458Z,21.90
2018-09-25T10:05:36.101Z,21.00
2018-09-25T10:08:09.694Z,21.40
2018-09-25T10:10:43.429Z,22.40
2018-09-25T10:13:17.143Z,22.40
2018-09-25T10:15:51.015Z,22.90
2018-09-25T10:18:24.655Z,22.80
2018-09-25T10:23:31.846Z,22.40
2018-09-25T10:26:05.442Z,22.40
2018-09-25T10:28:39.181Z,22.40
2018-09-25T10:31:12.908Z,22.50
2018-09-25T10:33:46.717Z,22.50
2018-09-25T10:36:20.323Z,21.70
2018-09-25T10:41:27.430Z,22.50
2018-09-25T10:44:01.519Z,22.60
2018-09-25T10:46:35.010Z,22.90
2018-09-25T10:49:08.797Z,22.90
2018-09-25T10:51:42.565Z,22.60
2018-09-25T10:54:16.318Z,22.00
2018-09-25T10:59:23.681Z,20.50
2018-09-25T11:01:57.557Z,20.90
2018-09-25T11:07:04.622Z,21.60
2018-09-25T11:09:38.631Z,21.20
2018-09-25T11:12:11.926Z,21.10
2018-09-25T11:14:45.682Z,21.10
2018-09-25T11:19:53.013Z,20.70
2018-09-25T11:25:00.472Z,20.10
2018-09-25T11:27:34.207Z,19.80
2018-09-25T11:30:07.991Z,20.40
2018-09-25T11:32:41.753Z,20.80
2018-09-25T11:37:49.033Z,20.40
2018-09-25T11:40:22.843Z,20.40
2018-09-25T11:42:56.614Z,20.30
2018-09-25T11:45:30.227Z,20.80
2018-09-25T11:53:11.012Z,20.20
2018-09-25T11:55:45.942Z,20.30
2018-09-25T11:58:19.615Z,19.80
2018-09-25T12:06:00.206Z,20.60
2018-09-25T12:08:33.750Z,20.70
2018-09-25T12:11:07.302Z,20.70
2018-09-25T12:13:41.004Z,20.30
2018-09-25T12:21:21.462Z,21.10
2018-09-25T12:23:55.201Z,20.90
2018-09-25T12:26:29.117Z,20.60
2018-09-25T12:29:02.736Z,20.30
2018-09-25T12:31:36.398Z,20.00
2018-09-25T12:39:17.943Z,19.60
2018-09-25T12:41:51.633Z,19.70
2018-09-25T12:44:25.321Z,19.80
2018-09-25T12:46:58.865Z,20.00
2018-09-25T12:49:32.522Z,19.90
2018-09-25T12:52:05.986Z,19.90
2018-09-25T12:54:39.719Z,19.80
2018-09-25T12:57:13.415Z,19.50
2018-09-25T12:59:47.079Z,19.60
2018-09-25T13:02:21.261Z,19.60
2018-09-25T13:04:55.031Z,19.60
2018-09-25T13:07:28.842Z,20.10
2018-09-25T13:10:02.294Z,19.80
2018-09-25T13:12:36.025Z,19.60
2018-09-25T13:17:43.336Z,19.70
2018-09-25T13:20:17.006Z,19.70
2018-09-25T13:22:50.694Z,19.70
2018-09-25T13:25:24.375Z,19.80
2018-09-25T13:27:58.401Z,19.80
2018-09-25T13:30:32.113Z,19.70
2018-09-25T13:33:05.830Z,19.60
2018-09-25T13:35:39.553Z,19.80
2018-09-25T13:38:13.165Z,19.10
2018-09-25T13:40:46.770Z,18.70
2018-09-25T13:43:20.474Z,19.30
2018-09-25T13:45:54.132Z,19.40
2018-09-25T13:48:27.666Z,19.40
2018-09-25T13:51:01.327Z,19.10
2018-09-25T13:53:35.016Z,19.20
2018-09-25T13:56:08.807Z,19.10
2018-09-25T14:01:15.965Z,19.70
2018-09-25T14:03:49.757Z,19.50
2018-09-25T14:06:23.481Z,18.90
2018-09-25T14:08:57.218Z,18.80
2018-09-25T14:11:30.942Z,18.50
2018-09-25T14:14:04.446Z,18.80
2018-09-25T14:16:38.103Z,18.60
2018-09-25T14:19:11.614Z,18.50
2018-09-25T14:21:45.249Z,18.30
2018-09-25T14:24:18.924Z,18.10
2018-09-25T14:26:52.602Z,18.40
2018-09-25T14:29:26.294Z,18.10
2018-09-25T14:31:59.770Z,18.20
2018-09-25T14:34:33.375Z,18.10
2018-09-25T14:37:06.958Z,18.10
2018-09-25T14:39:40.511Z,18.30
2018-09-25T14:42:14.218Z,18.50
2018-09-25T14:44:47.952Z,18.10
2018-09-25T14:47:21.743Z,18.30
2018-09-25T14:49:55.526Z,18.40
2018-09-25T14:52:29.045Z,18.60
2018-09-25T14:55:02.573Z,18.20
2018-09-25T14:57:36.041Z,18.40
2018-09-25T15:00:09.797Z,18.00
2018-09-25T15:02:43.530Z,18.30
2018-09-25T15:05:17.263Z,18.10
2018-09-25T15:07:50.848Z,18.40
2018-09-25T15:10:24.290Z,18.20
2018-09-25T15:12:58.027Z,18.20
2018-09-25T15:15:32.289Z,18.30
2018-09-25T15:18:05.901Z,18.30
2018-09-25T15:20:39.502Z,18.30
2018-09-25T15:23:13.145Z,18.10
2018-09-25T15:25:46.894Z,18.00
2018-09-25T15:28:20.323Z,18.20
2018-09-25T15:30:53.941Z,18.80
2018-09-25T15:33:27.851Z,18.70
2018-09-25T15:36:01.452Z,18.10
2018-09-25T15:38:35.241Z,17.90
2018-09-25T15:41:08.934Z,18.00
2018-09-25T15:43:42.666Z,18.50
2018-09-25T15:46:16.494Z,18.50
2018-09-25T15:48:50.164Z,18.40
2018-09-25T15:51:23.780Z,18.40
2018-09-25T15:53:57.500Z,18.00
2018-09-25T15:56:31.178Z,18.20
2018-09-25T15:59:04.727Z,18.30
2018-09-25T16:01:38.393Z,17.80
2018-09-25T16:04:12.193Z,18.10
2018-09-25T16:06:45.986Z,18.60
2018-09-25T16:09:19.749Z,18.80
2018-09-25T16:11:53.353Z,19.00
2018-09-25T16:14:27.012Z,18.40
2018-09-25T16:17:00.512Z,17.80
2018-09-25T16:19:34.041Z,18.40
2018-09-25T16:22:07.709Z,18.10
2018-09-25T16:24:41.450Z,17.90
2018-09-25T16:27:15.186Z,18.30
2018-09-25T16:29:48.886Z,18.10
2018-09-25T16:32:22.590Z,18.20
2018-09-25T16:34:56.226Z,18.30
2018-09-25T16:37:30.174Z,18.00
2018-09-25T16:40:03.841Z,17.80
2018-09-25T16:42:37.626Z,17.80
2018-09-25T16:45:11.330Z,17.70
2018-09-25T16:47:45.180Z,17.60
2018-09-25T16:50:18.987Z,18.00
2018-09-25T16:52:53.107Z,17.90
2018-09-25T16:55:26.610Z,18.10
2018-09-25T16:58:00.455Z,18.20
2018-09-25T17:00:34.293Z,18.20
2018-09-25T17:05:41.567Z,18.10
2018-09-25T17:08:15.268Z,18.20
2018-09-25T17:10:48.807Z,18.20
2018-09-25T17:13:22.823Z,18.10
2018-09-25T17:15:56.544Z,18.10
2018-09-25T17:18:30.222Z,18.10
2018-09-25T17:23:37.526Z,18.10
2018-09-25T17:26:11.406Z,18.00
2018-09-25T17:28:44.977Z,18.10
2018-09-25T17:31:18.529Z,17.60
2018-09-25T17:33:52.248Z,17.60
2018-09-25T17:36:25.955Z,17.60
2018-09-25T17:44:06.709Z,17.30
2018-09-25T17:46:40.287Z,16.90
2018-09-25T17:49:14.043Z,16.80
2018-09-25T17:51:47.662Z,16.80
2018-09-25T17:54:21.442Z,16.80
2018-09-25T17:56:55.250Z,16.60
2018-09-25T17:59:28.840Z,16.70
2018-09-25T18:02:02.536Z,16.60
2018-09-25T18:04:36.366Z,16.50
2018-09-25T18:07:10.110Z,16.50
2018-09-25T18:09:43.802Z,16.40
2018-09-25T18:12:17.558Z,16.20
2018-09-25T18:14:51.294Z,16.00
2018-09-25T18:17:25.154Z,16.10
2018-09-25T18:19:58.751Z,15.80
2018-09-25T18:22:32.503Z,16.10
2018-09-25T18:25:06.365Z,16.10
2018-09-25T18:27:39.879Z,15.80
2018-09-25T18:30:13.600Z,15.30
2018-09-25T18:32:47.196Z,15.60
2018-09-25T18:35:21.333Z,15.50
2018-09-25T18:37:54.910Z,15.50
2018-09-25T18:40:28.542Z,15.40
2018-09-25T18:43:02.197Z,15.40
2018-09-25T18:45:35.832Z,15.50
2018-09-25T18:48:09.601Z,15.50
2018-09-25T18:50:43.550Z,15.50
2018-09-25T18:53:17.057Z,15.50
2018-09-25T18:55:50.626Z,15.50
2018-09-25T18:58:24.449Z,15.50
2018-09-25T19:00:58.374Z,15.50
2018-09-25T19:03:31.973Z,15.40
2018-09-25T19:06:05.521Z,15.40
2018-09-25T19:08:39.237Z,15.10
2018-09-25T19:11:13.074Z,15.10
2018-09-25T19:13:46.845Z,15.30
2018-09-25T19:16:20.442Z,15.30
2018-09-25T19:18:54.186Z,15.10
2018-09-25T19:21:28.019Z,15.20
2018-09-25T19:24:02.693Z,15.20
2018-09-25T19:26:36.830Z,15.10
2018-09-25T19:29:10.354Z,14.80
2018-09-25T19:31:43.929Z,14.90
2018-09-25T19:34:17.441Z,15.00
2018-09-25T19:36:50.941Z,15.00
2018-09-25T19:39:24.678Z,14.70
2018-09-25T19:41:58.502Z,14.50
2018-09-25T19:44:31.937Z,14.50
2018-09-25T19:47:05.622Z,14.40
2018-09-25T19:49:39.417Z,14.40
2018-09-25T19:52:13.163Z,14.40
2018-09-25T19:54:46.879Z,14.40
2018-09-25T19:57:20.610Z,14.10
2018-09-25T19:59:54.356Z,14.10
2018-09-25T20:02:27.905Z,14.20
2018-09-25T20:05:01.609Z,14.20
2018-09-25T20:07:35.186Z,14.40
2018-09-25T20:10:08.924Z,13.90
2018-09-25T20:12:42.790Z,14.00
2018-09-25T20:15:16.342Z,14.00
2018-09-25T20:17:50.052Z,14.00
2018-09-25T20:20:23.702Z,14.20
2018-09-25T20:22:57.454Z,14.30
2018-09-25T20:25:30.983Z,14.30
2018-09-25T20:28:04.694Z,14.20
2018-09-25T20:30:38.402Z,14.10
2018-09-25T20:33:11.991Z,14.30
2018-09-25T20:35:52.610Z,14.60
2018-09-25T20:38:26.562Z,14.40
2018-09-25T20:41:00.185Z,14.50
2018-09-25T20:43:33.950Z,14.40
2018-09-25T20:46:08.246Z,14.30
2018-09-25T20:48:41.805Z,14.30
2018-09-25T20:51:15.392Z,14.40
2018-09-25T20:53:49.030Z,14.00
2018-09-25T20:56:22.596Z,13.90
2018-09-25T20:58:56.412Z,13.90
2018-09-25T21:01:30.097Z,13.90
2018-09-25T21:04:03.661Z,14.00
2018-09-25T21:06:37.514Z,14.20
2018-09-25T21:09:13.809Z,14.10
2018-09-25T21:11:47.869Z,14.10
2018-09-25T21:14:21.991Z,14.10
2018-09-25T21:16:55.692Z,14.60
2018-09-25T21:19:29.442Z,14.70
2018-09-25T21:22:02.993Z,14.70
2018-09-25T21:24:36.813Z,14.40
2018-09-25T21:27:10.474Z,14.30
2018-09-25T21:29:44.322Z,14.40
2018-09-25T21:32:18.084Z,14.10
2018-09-25T21:34:51.708Z,14.10
2018-09-25T21:37:25.342Z,14.10
2018-09-25T21:39:59.335Z,14.00
2018-09-25T21:42:32.906Z,14.20
2018-09-25T21:45:06.569Z,14.50
2018-09-25T21:47:40.345Z,14.70
2018-09-25T21:50:14.345Z,14.70
2018-09-25T21:52:48.079Z,14.30
2018-09-25T21:55:21.869Z,14.30
2018-09-25T21:57:55.499Z,14.20
2018-09-25T22:00:29.464Z,14.10
2018-09-25T22:03:03.193Z,14.00
2018-09-25T22:05:36.667Z,14.30
2018-09-25T22:08:10.386Z,14.40
2018-09-25T22:10:44.018Z,14.30
2018-09-25T22:13:17.625Z,14.20
2018-09-25T22:15:51.171Z,14.20
2018-09-25T22:18:24.668Z,14.10
2018-09-25T22:20:58.193Z,14.20
2018-09-25T22:23:31.825Z,14.00
2018-09-25T22:26:05.630Z,13.80
2018-09-25T22:28:39.437Z,13.70
2018-09-25T22:31:13.242Z,13.50
2018-09-25T22:33:47.037Z,13.70
2018-09-25T22:36:20.633Z,13.80
2018-09-25T22:38:54.246Z,13.90
2018-09-25T22:41:27.905Z,13.90
2018-09-25T22:44:01.580Z,13.80
2018-09-25T22:46:35.711Z,14.00
2018-09-25T22:49:09.405Z,14.00
2018-09-25T22:51:43.141Z,13.90
2018-09-25T22:54:16.899Z,13.80
2018-09-25T22:56:50.612Z,13.60
2018-09-25T22:59:24.174Z,13.50
2018-09-25T23:01:58.228Z,13.30
2018-09-25T23:04:31.876Z,13.20
2018-09-25T23:07:05.616Z,12.80
2018-09-25T23:09:39.293Z,12.80
2018-09-25T23:12:13.121Z,12.90
2018-09-25T23:14:46.805Z,13.00
2018-09-25T23:17:20.453Z,13.10
2018-09-25T23:19:53.934Z,13.20
2018-09-25T23:22:27.719Z,13.10
2018-09-25T23:25:01.333Z,13.20
2018-09-25T23:27:34.881Z,13.10
2018-09-25T23:30:08.635Z,13.00
2018-09-25T23:32:42.353Z,12.80
2018-09-25T23:35:16.142Z,12.80
2018-09-25T23:37:49.690Z,13.00
2018-09-25T23:40:26.137Z,12.90
2018-09-25T23:43:01.593Z,12.90
2018-09-25T23:45:54.037Z,13.10
2018-09-25T23:50:31.574Z,13.10
2018-09-25T23:53:15.166Z,13.00
2018-09-25T23:56:52.090Z,12.60
2018-09-25T23:59:26.313Z,12.70
